Time;durP1;ratioP1;P1;durP2;ratioP2;P2;SDS_P1;SDS_P2;PMS_P1;PMS_P2;Temp;Humidity;BMP_temperature;BMP_pressure;BME280_temperature;BME280_humidity;BME280_pressure;Samples;Min_cycle;Max_cycle;Signal;HPM_P1;HPM_P2
2021/06/12 00:00:52;;;;;;;2.08;1.60;;;;;;;;;;4878125;29;20564;-45
2021/06/12 00:03:18;;;;;;;2.35;1.20;;;;;;;;;;4878183;29;20029;-45
2021/06/12 00:05:43;;;;;;;3.33;1.42;;;;;;;;;;4878970;29;20035;-44
2021/06/12 00:08:09;;;;;;;2.03;1.52;;;;;;;;;;4879660;29;20056;-45
2021/06/12 00:10:35;;;;;;;2.15;1.48;;;;;;;;;;4879182;29;20040;-44
2021/06/12 00:13:01;;;;;;;2.30;1.42;;;;;;;;;;4879221;29;20627;-44
2021/06/12 00:15:27;;;;;;;3.85;1.38;;;;;;;;;;4879156;29;20045;-44
2021/06/12 00:17:52;;;;;;;1.48;1.38;;;;;;;;;;4879114;29;20021;-44
2021/06/12 00:20:20;;;;;;;1.45;1.23;;;;;;;;;;4879441;29;20040;-45
2021/06/12 00:22:46;;;;;;;1.70;1.30;;;;;;;;;;4878888;29;20021;-44
2021/06/12 00:25:12;;;;;;;1.70;1.30;;;;;;;;;;4879410;29;20033;-44
2021/06/12 00:27:39;;;;;;;1.45;1.30;;;;;;;;;;4879300;29;20036;-44
2021/06/12 00:30:05;;;;;;;6.72;1.83;;;;;;;;;;4878990;29;20037;-44
2021/06/12 00:32:31;;;;;;;1.70;1.40;;;;;;;;;;4878952;29;20061;-45
2021/06/12 00:34:56;;;;;;;3.47;1.20;;;;;;;;;;4878743;29;20073;-45
2021/06/12 00:37:22;;;;;;;1.67;1.17;;;;;;;;;;4878927;29;20053;-46
2021/06/12 00:39:47;;;;;;;1.33;1.20;;;;;;;;;;4878933;29;20064;-44
2021/06/12 00:42:13;;;;;;;2.40;1.40;;;;;;;;;;4878841;29;20491;-44
2021/06/12 00:44:38;;;;;;;1.58;1.05;;;;;;;;;;4877508;29;20041;-45
2021/06/12 00:47:03;;;;;;;1.05;0.93;;;;;;;;;;4879016;29;20104;-45
2021/06/12 00:49:29;;;;;;;1.10;1.00;;;;;;;;;;4878855;29;20392;-44
2021/06/12 00:51:54;;;;;;;3.75;1.73;;;;;;;;;;4878904;29;20029;-44
2021/06/12 00:54:20;;;;;;;3.00;1.88;;;;;;;;;;4878358;29;20519;-44
2021/06/12 00:56:45;;;;;;;1.92;1.00;;;;;;;;;;4878801;29;20024;-46
2021/06/12 00:59:11;;;;;;;1.88;1.50;;;;;;;;;;4878694;29;20029;-45
2021/06/12 01:01:36;;;;;;;3.10;1.40;;;;;;;;;;4878897;29;20025;-45
2021/06/12 01:04:01;;;;;;;1.25;1.08;;;;;;;;;;4878639;29;20041;-45
2021/06/12 01:06:27;;;;;;;1.33;1.20;;;;;;;;;;4878613;29;20104;-45
2021/06/12 01:08:53;;;;;;;1.00;0.90;;;;;;;;;;4878617;29;20033;-45
2021/06/12 01:11:18;;;;;;;2.67;1.70;;;;;;;;;;4878582;29;20021;-45
2021/06/12 01:14:04;;;;;;;2.28;1.27;;;;;;;;;;4878669;29;20045;-46
2021/06/12 01:16:32;;;;;;;1.95;1.38;;;;;;;;;;4879491;29;20081;-45
2021/06/12 01:19:01;;;;;;;1.30;1.20;;;;;;;;;;4882247;29;20559;-45
2021/06/12 01:21:32;;;;;;;1.80;1.65;;;;;;;;;;4882234;29;20072;-44
2021/06/12 01:24:16;;;;;;;1.35;1.23;;;;;;;;;;4882448;29;20108;-45
2021/06/12 01:26:47;;;;;;;1.88;1.30;;;;;;;;;;4882130;29;20037;-45
2021/06/12 01:29:13;;;;;;;3.28;1.00;;;;;;;;;;4882232;29;20037;-45
2021/06/12 01:31:39;;;;;;;2.65;1.30;;;;;;;;;;4882427;29;20089;-45
2021/06/12 01:34:05;;;;;;;1.65;1.20;;;;;;;;;;4882005;29;20085;-44
2021/06/12 01:36:30;;;;;;;1.48;1.10;;;;;;;;;;4882051;29;20084;-45
2021/06/12 01:38:56;;;;;;;1.38;1.27;;;;;;;;;;4881782;29;20080;-44
2021/06/12 01:41:22;;;;;;;1.90;1.50;;;;;;;;;;4881941;29;20029;-44
2021/06/12 01:43:49;;;;;;;4.03;1.35;;;;;;;;;;4881874;29;20077;-45
2021/06/12 01:46:15;;;;;;;1.30;1.20;;;;;;;;;;4881929;29;20081;-44
2021/06/12 01:48:42;;;;;;;3.90;1.50;;;;;;;;;;4881936;29;20040;-44
2021/06/12 01:51:08;;;;;;;5.22;1.48;;;;;;;;;;4882027;29;20025;-44
2021/06/12 01:53:34;;;;;;;1.73;1.23;;;;;;;;;;4881705;29;20037;-44
2021/06/12 01:56:01;;;;;;;1.80;1.45;;;;;;;;;;4881850;29;20025;-44
2021/06/12 01:58:27;;;;;;;2.63;1.52;;;;;;;;;;4881626;29;20112;-44
2021/06/12 02:00:52;;;;;;;1.63;1.40;;;;;;;;;;4881503;29;20158;-45
2021/06/12 02:03:18;;;;;;;1.42;1.08;;;;;;;;;;4881538;29;20324;-45
2021/06/12 02:05:44;;;;;;;3.47;1.30;;;;;;;;;;4881506;29;20025;-44
2021/06/12 02:08:10;;;;;;;2.22;1.50;;;;;;;;;;4880649;29;20040;-46
2021/06/12 02:10:36;;;;;;;3.88;1.48;;;;;;;;;;4881347;29;20020;-44
2021/06/12 02:13:02;;;;;;;5.05;1.60;;;;;;;;;;4881419;29;20040;-44
2021/06/12 02:15:29;;;;;;;3.95;1.50;;;;;;;;;;4881321;29;20029;-44
2021/06/12 02:18:06;;;;;;;1.85;1.60;;;;;;;;;;4881246;29;20369;-44
2021/06/12 02:20:32;;;;;;;1.35;1.17;;;;;;;;;;4881233;29;20456;-44
2021/06/12 02:22:58;;;;;;;3.88;1.35;;;;;;;;;;4881117;29;20021;-44
2021/06/12 02:25:23;;;;;;;3.78;1.15;;;;;;;;;;4881486;29;20154;-45
2021/06/12 02:27:54;;;;;;;3.67;1.85;;;;;;;;;;4880575;29;20181;-44
2021/06/12 02:30:21;;;;;;;2.63;1.27;;;;;;;;;;4881036;29;20392;-45
2021/06/12 02:32:48;;;;;;;5.28;1.35;;;;;;;;;;4880972;29;20029;-45
2021/06/12 02:35:14;;;;;;;3.65;1.38;;;;;;;;;;4880925;29;20048;-44
2021/06/12 02:37:41;;;;;;;3.20;1.27;;;;;;;;;;4880744;29;20053;-44
2021/06/12 02:40:07;;;;;;;3.83;1.33;;;;;;;;;;4880925;29;20033;-45
2021/06/12 02:42:32;;;;;;;1.48;1.38;;;;;;;;;;4880922;29;20120;-44
2021/06/12 02:44:58;;;;;;;2.10;1.60;;;;;;;;;;4880707;29;20123;-44
2021/06/12 02:47:24;;;;;;;4.05;1.23;;;;;;;;;;4879553;29;20025;-45
2021/06/12 02:49:50;;;;;;;1.63;1.40;;;;;;;;;;4880966;29;20112;-44
2021/06/12 02:52:21;;;;;;;1.52;1.20;;;;;;;;;;4880622;29;20100;-44
2021/06/12 02:54:47;;;;;;;1.88;1.63;;;;;;;;;;4880816;29;20105;-46
2021/06/12 02:57:13;;;;;;;1.35;1.23;;;;;;;;;;4880689;29;20012;-44
2021/06/12 02:59:41;;;;;;;2.50;1.33;;;;;;;;;;4880543;29;20541;-44
2021/06/12 03:02:07;;;;;;;1.88;1.45;;;;;;;;;;4880549;29;20029;-45
2021/06/12 03:04:35;;;;;;;1.95;1.35;;;;;;;;;;4880503;29;20029;-44
2021/06/12 03:07:01;;;;;;;2.30;1.27;;;;;;;;;;4880387;29;20036;-44
2021/06/12 03:09:28;;;;;;;4.60;1.52;;;;;;;;;;4880409;29;20391;-44
2021/06/12 03:11:54;;;;;;;4.53;2.03;;;;;;;;;;4880271;29;20604;-45
2021/06/12 03:14:20;;;;;;;1.67;1.20;;;;;;;;;;4880252;29;20542;-44
2021/06/12 03:16:46;;;;;;;1.83;1.50;;;;;;;;;;4880495;29;20017;-44
2021/06/12 03:19:13;;;;;;;5.75;1.55;;;;;;;;;;4880315;29;20032;-44
2021/06/12 03:21:38;;;;;;;2.33;1.35;;;;;;;;;;4880063;29;20028;-44
2021/06/12 03:24:04;;;;;;;3.38;1.23;;;;;;;;;;4880098;29;20044;-45
2021/06/12 03:26:31;;;;;;;1.70;1.23;;;;;;;;;;4863507;29;20017;-44
2021/06/12 03:28:56;;;;;;;1.58;1.30;;;;;;;;;;4879957;29;20120;-44
2021/06/12 03:31:22;;;;;;;2.35;1.63;;;;;;;;;;4880093;29;20444;-46
2021/06/12 03:33:47;;;;;;;2.03;1.70;;;;;;;;;;4879849;29;20048;-44
2021/06/12 03:36:13;;;;;;;1.58;1.33;;;;;;;;;;4879907;29;20017;-44
2021/06/12 03:38:38;;;;;;;1.75;1.27;;;;;;;;;;4879872;29;20084;-44
2021/06/12 03:41:04;;;;;;;2.03;1.45;;;;;;;;;;4879117;29;20048;-44
2021/06/12 03:43:30;;;;;;;1.67;1.42;;;;;;;;;;4880071;29;20033;-44
2021/06/12 03:45:56;;;;;;;2.28;1.67;;;;;;;;;;4879771;29;20025;-46
2021/06/12 03:48:23;;;;;;;3.40;1.52;;;;;;;;;;4879657;29;20585;-44
2021/06/12 03:50:50;;;;;;;1.90;1.60;;;;;;;;;;4879814;29;20053;-44
2021/06/12 03:53:16;;;;;;;1.88;1.55;;;;;;;;;;4879796;29;20033;-45
2021/06/12 03:55:41;;;;;;;2.67;1.40;;;;;;;;;;4879481;29;20487;-44
2021/06/12 03:58:07;;;;;;;2.28;1.67;;;;;;;;;;4879644;29;20025;-45
2021/06/12 04:00:33;;;;;;;2.38;1.55;;;;;;;;;;4879456;29;20040;-44
2021/06/12 04:02:59;;;;;;;2.55;1.70;;;;;;;;;;4879636;29;20052;-45
2021/06/12 04:05:24;;;;;;;2.13;1.70;;;;;;;;;;4879467;29;20468;-45
2021/06/12 04:07:49;;;;;;;2.17;1.65;;;;;;;;;;4878141;29;20040;-44
2021/06/12 04:10:15;;;;;;;1.75;1.30;;;;;;;;;;4879508;29;20021;-44
2021/06/12 04:12:40;;;;;;;2.65;1.90;;;;;;;;;;4879289;29;20477;-45
2021/06/12 04:15:06;;;;;;;1.73;1.52;;;;;;;;;;4879197;29;20032;-45
2021/06/12 04:17:32;;;;;;;2.13;1.42;;;;;;;;;;4879221;29;20029;-45
2021/06/12 04:19:57;;;;;;;6.78;1.73;;;;;;;;;;4879331;29;20021;-44
2021/06/12 04:22:22;;;;;;;1.83;1.30;;;;;;;;;;4879478;29;20536;-44
2021/06/12 04:24:48;;;;;;;1.77;1.33;;;;;;;;;;4878936;29;20404;-45
2021/06/12 04:27:13;;;;;;;2.00;1.52;;;;;;;;;;4877918;29;20032;-44
2021/06/12 04:29:39;;;;;;;2.08;1.35;;;;;;;;;;4879359;29;20162;-45
2021/06/12 04:32:04;;;;;;;4.05;1.40;;;;;;;;;;4879134;29;20045;-44
2021/06/12 04:34:29;;;;;;;1.35;1.20;;;;;;;;;;4878080;29;20032;-45
2021/06/12 04:36:55;;;;;;;2.42;1.27;;;;;;;;;;4878708;29;20365;-44
2021/06/12 04:39:20;;;;;;;2.17;1.70;;;;;;;;;;4877707;29;20041;-44
2021/06/12 04:41:46;;;;;;;1.50;1.40;;;;;;;;;;4879069;29;20033;-44
2021/06/12 04:44:11;;;;;;;1.20;1.10;;;;;;;;;;4878900;29;20518;-44
2021/06/12 04:46:37;;;;;;;3.15;1.58;;;;;;;;;;4878763;29;20032;-44
2021/06/12 04:49:02;;;;;;;3.72;1.67;;;;;;;;;;4878797;29;20137;-44
2021/06/12 04:51:28;;;;;;;2.92;1.80;;;;;;;;;;4878434;29;20408;-44
2021/06/12 04:53:53;;;;;;;1.92;1.67;;;;;;;;;;4878607;29;20029;-44
2021/06/12 04:56:18;;;;;;;6.13;1.67;;;;;;;;;;4878776;29;20060;-44
2021/06/12 04:58:44;;;;;;;2.60;1.65;;;;;;;;;;4878702;29;20017;-44
2021/06/12 05:01:09;;;;;;;1.55;1.40;;;;;;;;;;4877418;29;20048;-44
2021/06/12 05:03:35;;;;;;;2.80;1.45;;;;;;;;;;4878713;29;20035;-45
2021/06/12 05:06:01;;;;;;;2.22;1.48;;;;;;;;;;4878701;29;20025;-44
2021/06/12 05:08:26;;;;;;;5.60;1.40;;;;;;;;;;4878638;29;20021;-44
2021/06/12 05:10:51;;;;;;;1.48;1.33;;;;;;;;;;4878539;29;20029;-44
2021/06/12 05:13:17;;;;;;;1.58;1.48;;;;;;;;;;4878553;29;20025;-46
2021/06/12 05:15:42;;;;;;;1.98;1.40;;;;;;;;;;4878724;29;20041;-44
2021/06/12 05:18:08;;;;;;;3.17;1.20;;;;;;;;;;4878609;29;20475;-44
2021/06/12 05:20:35;;;;;;;2.30;1.30;;;;;;;;;;4878801;29;20043;-45
2021/06/12 05:23:01;;;;;;;2.38;1.50;;;;;;;;;;4878378;29;20615;-45
2021/06/12 05:25:26;;;;;;;4.50;1.65;;;;;;;;;;4878573;29;20025;-45
2021/06/12 05:27:52;;;;;;;2.83;1.40;;;;;;;;;;4878400;29;20076;-44
2021/06/12 05:30:17;;;;;;;2.35;1.48;;;;;;;;;;4878354;29;20468;-44
2021/06/12 05:32:43;;;;;;;2.25;1.38;;;;;;;;;;4878404;29;20029;-44
2021/06/12 05:35:08;;;;;;;4.35;1.65;;;;;;;;;;4878226;29;20488;-44
2021/06/12 05:37:35;;;;;;;5.68;2.08;;;;;;;;;;4878402;29;20041;-44
2021/06/12 05:40:01;;;;;;;8.38;2.42;;;;;;;;;;4878361;29;20392;-44
2021/06/12 05:42:26;;;;;;;3.38;1.88;;;;;;;;;;4878319;29;20025;-44
2021/06/12 05:44:52;;;;;;;3.53;1.35;;;;;;;;;;4878557;29;20040;-44
2021/06/12 05:47:17;;;;;;;1.20;1.10;;;;;;;;;;4878260;29;20044;-44
2021/06/12 05:49:43;;;;;;;3.08;1.58;;;;;;;;;;4878222;29;20029;-44
2021/06/12 05:52:08;;;;;;;1.30;1.20;;;;;;;;;;4878217;29;20021;-45
2021/06/12 05:54:33;;;;;;;2.83;1.40;;;;;;;;;;4878246;29;20077;-44
2021/06/12 05:56:59;;;;;;;4.07;1.98;;;;;;;;;;4878110;29;20453;-45
2021/06/12 05:59:24;;;;;;;4.13;1.48;;;;;;;;;;4878247;29;20052;-44
2021/06/12 06:01:50;;;;;;;5.43;1.77;;;;;;;;;;4876843;29;20017;-44
2021/06/12 06:04:15;;;;;;;2.75;1.50;;;;;;;;;;4879991;29;20072;-44
2021/06/12 06:06:41;;;;;;;1.50;1.25;;;;;;;;;;4881861;29;20052;-44
2021/06/12 06:09:06;;;;;;;1.70;1.52;;;;;;;;;;4881571;29;20084;-44
2021/06/12 06:11:32;;;;;;;4.03;1.38;;;;;;;;;;4881277;29;20029;-45
2021/06/12 06:13:57;;;;;;;2.60;1.50;;;;;;;;;;4881306;29;20044;-44
2021/06/12 06:16:22;;;;;;;2.17;1.35;;;;;;;;;;4881471;29;20077;-44
2021/06/12 06:18:48;;;;;;;2.05;1.48;;;;;;;;;;4879968;29;20032;-45
2021/06/12 06:21:14;;;;;;;2.50;1.70;;;;;;;;;;4881352;29;20100;-44
2021/06/12 06:23:39;;;;;;;1.42;1.00;;;;;;;;;;4881094;29;20021;-44
2021/06/12 06:26:05;;;;;;;1.98;1.52;;;;;;;;;;4881420;29;20033;-45
2021/06/12 06:28:32;;;;;;;1.77;1.42;;;;;;;;;;4880005;29;20029;-45
2021/06/12 06:30:57;;;;;;;2.38;1.50;;;;;;;;;;4881259;29;20021;-44
2021/06/12 06:33:24;;;;;;;1.67;1.58;;;;;;;;;;4880990;29;20115;-45
2021/06/12 06:35:49;;;;;;;8.32;1.58;;;;;;;;;;4880941;29;20077;-44
2021/06/12 06:38:15;;;;;;;2.10;1.55;;;;;;;;;;4880903;29;20057;-44
2021/06/12 06:40:40;;;;;;;1.42;1.30;;;;;;;;;;4880938;29;20036;-44
2021/06/12 06:43:07;;;;;;;2.88;1.05;;;;;;;;;;4880814;29;20025;-44
2021/06/12 06:45:32;;;;;;;1.58;1.25;;;;;;;;;;4880986;29;20021;-44
2021/06/12 06:47:58;;;;;;;1.35;1.25;;;;;;;;;;4880725;29;20040;-44
2021/06/12 06:50:23;;;;;;;2.30;1.60;;;;;;;;;;4880790;29;20028;-44
2021/06/12 06:52:49;;;;;;;1.60;1.20;;;;;;;;;;4880775;29;20076;-44
2021/06/12 06:55:16;;;;;;;1.25;1.15;;;;;;;;;;4880573;29;20029;-44
2021/06/12 06:57:41;;;;;;;2.03;1.77;;;;;;;;;;4881038;29;20428;-44
2021/06/12 07:00:07;;;;;;;1.45;1.20;;;;;;;;;;4880760;29;20139;-44
2021/06/12 07:02:33;;;;;;;5.60;1.35;;;;;;;;;;4879175;29;20029;-44
2021/06/12 07:04:58;;;;;;;1.55;1.35;;;;;;;;;;4880781;29;20392;-44
2021/06/12 07:07:23;;;;;;;4.50;1.75;;;;;;;;;;4880505;29;20044;-45
2021/06/12 07:09:49;;;;;;;4.00;1.15;;;;;;;;;;4880558;29;20025;-44
2021/06/12 07:12:15;;;;;;;1.20;1.08;;;;;;;;;;4880358;29;20037;-44
2021/06/12 07:14:43;;;;;;;5.00;1.35;;;;;;;;;;4880100;29;20043;-44
2021/06/12 07:17:08;;;;;;;1.70;1.50;;;;;;;;;;4880295;29;20037;-43
2021/06/12 07:19:34;;;;;;;3.47;1.45;;;;;;;;;;4880555;29;20024;-45
2021/06/12 07:21:59;;;;;;;2.38;1.10;;;;;;;;;;4880030;29;20499;-44
2021/06/12 07:24:25;;;;;;;2.78;1.70;;;;;;;;;;4880196;29;20033;-45
2021/06/12 07:26:50;;;;;;;5.65;1.40;;;;;;;;;;4880331;29;20388;-44
2021/06/12 07:29:16;;;;;;;2.75;0.93;;;;;;;;;;4878838;29;20441;-44
2021/06/12 07:31:41;;;;;;;2.20;1.08;;;;;;;;;;4880290;29;20037;-44
2021/06/12 07:34:08;;;;;;;1.67;1.45;;;;;;;;;;4879883;29;20029;-45
2021/06/12 07:36:33;;;;;;;3.47;1.20;;;;;;;;;;4880175;29;20073;-44
2021/06/12 07:38:59;;;;;;;1.73;1.17;;;;;;;;;;4879635;29;20133;-44
2021/06/12 07:41:24;;;;;;;2.10;1.45;;;;;;;;;;4879900;29;20152;-44
2021/06/12 07:43:50;;;;;;;1.63;1.38;;;;;;;;;;4879712;29;20028;-44
2021/06/12 07:46:16;;;;;;;1.45;1.05;;;;;;;;;;4879845;29;20039;-46
2021/06/12 07:48:41;;;;;;;2.03;1.40;;;;;;;;;;4879777;29;20040;-44
2021/06/12 07:51:07;;;;;;;1.65;1.38;;;;;;;;;;4879838;29;20033;-44
2021/06/12 07:53:32;;;;;;;1.55;1.30;;;;;;;;;;4879638;29;20029;-45
2021/06/12 07:55:58;;;;;;;1.75;1.48;;;;;;;;;;4879629;29;20033;-44
2021/06/12 07:58:24;;;;;;;8.82;1.45;;;;;;;;;;4879580;29;20472;-44
2021/06/12 08:00:49;;;;;;;2.15;1.38;;;;;;;;;;4879420;29;20453;-45
2021/06/12 08:03:14;;;;;;;1.55;1.30;;;;;;;;;;4879833;29;20029;-45
2021/06/12 08:05:40;;;;;;;1.25;1.10;;;;;;;;;;4879475;29;20111;-45
2021/06/12 08:08:05;;;;;;;1.10;1.00;;;;;;;;;;4879639;29;20025;-45
2021/06/12 08:10:31;;;;;;;1.48;1.38;;;;;;;;;;4879400;29;20492;-44
2021/06/12 08:12:56;;;;;;;2.70;1.20;;;;;;;;;;4879181;29;20457;-44
2021/06/12 08:15:23;;;;;;;6.47;1.52;;;;;;;;;;4879349;29;20071;-46
2021/06/12 08:17:49;;;;;;;1.70;1.27;;;;;;;;;;4879430;29;20056;-45
2021/06/12 08:20:14;;;;;;;3.15;1.40;;;;;;;;;;4879250;29;20060;-44
2021/06/12 08:22:41;;;;;;;1.65;1.52;;;;;;;;;;4877954;29;20027;-44
2021/06/12 08:25:08;;;;;;;2.20;1.13;;;;;;;;;;4879105;29;20055;-44
2021/06/12 08:27:34;;;;;;;2.05;1.38;;;;;;;;;;4878552;29;20029;-44
2021/06/12 08:29:59;;;;;;;4.57;1.40;;;;;;;;;;4878930;29;20088;-44
2021/06/12 08:32:25;;;;;;;1.80;1.33;;;;;;;;;;4879082;29;20072;-44
2021/06/12 08:34:50;;;;;;;1.92;1.40;;;;;;;;;;4879113;29;20135;-45
2021/06/12 08:37:16;;;;;;;3.35;1.42;;;;;;;;;;4878780;29;20053;-44
2021/06/12 08:39:41;;;;;;;3.78;1.33;;;;;;;;;;4878994;29;20043;-45
2021/06/12 08:42:07;;;;;;;3.28;1.30;;;;;;;;;;4878801;29;20037;-46
2021/06/12 08:44:34;;;;;;;2.17;1.52;;;;;;;;;;4878975;29;20041;-45
2021/06/12 08:46:59;;;;;;;1.73;1.40;;;;;;;;;;4878855;29;20021;-46
2021/06/12 08:49:25;;;;;;;1.63;1.30;;;;;;;;;;4878839;29;20094;-45
2021/06/12 08:51:50;;;;;;;2.25;1.58;;;;;;;;;;4878746;29;20504;-45
2021/06/12 08:54:17;;;;;;;4.57;1.33;;;;;;;;;;4878739;29;20092;-45
2021/06/12 08:56:42;;;;;;;1.52;1.38;;;;;;;;;;4878712;29;20021;-45
2021/06/12 08:59:08;;;;;;;2.20;1.40;;;;;;;;;;4878665;29;20040;-45
2021/06/12 09:01:33;;;;;;;1.90;1.40;;;;;;;;;;4878928;29;20081;-44
2021/06/12 09:03:59;;;;;;;1.77;1.42;;;;;;;;;;4878657;29;20468;-44
2021/06/12 09:06:24;;;;;;;1.75;1.33;;;;;;;;;;4878678;29;20055;-44
2021/06/12 09:08:50;;;;;;;2.20;2.00;;;;;;;;;;4878601;29;20029;-44
2021/06/12 09:11:16;;;;;;;1.25;1.15;;;;;;;;;;4878893;29;20040;-44
2021/06/12 09:13:44;;;;;;;1.70;1.40;;;;;;;;;;4878572;29;20501;-45
2021/06/12 09:16:19;;;;;;;3.22;1.83;;;;;;;;;;4878546;29;20058;-45
2021/06/12 09:18:44;;;;;;;1.67;1.33;;;;;;;;;;4878604;29;20032;-45
2021/06/12 09:21:21;;;;;;;5.07;1.83;;;;;;;;;;4878483;29;20025;-45
2021/06/12 09:23:46;;;;;;;2.78;1.75;;;;;;;;;;4878405;29;20041;-45
2021/06/12 09:26:13;;;;;;;2.65;1.70;;;;;;;;;;4878587;29;20025;-46
2021/06/12 09:28:45;;;;;;;2.08;1.50;;;;;;;;;;4878773;29;20037;-44
2021/06/12 09:31:27;;;;;;;2.58;1.40;;;;;;;;;;4878755;29;20029;-45
2021/06/12 09:33:56;;;;;;;1.95;1.55;;;;;;;;;;4878301;29;20062;-45
2021/06/12 09:36:34;;;;;;;2.88;1.83;;;;;;;;;;4878477;29;20612;-45
2021/06/12 09:39:13;;;;;;;3.92;1.80;;;;;;;;;;4879706;29;20086;-44
2021/06/12 09:41:40;;;;;;;2.20;1.52;;;;;;;;;;4882327;29;20085;-45
2021/06/12 09:44:05;;;;;;;2.78;1.65;;;;;;;;;;4880763;29;20037;-44
2021/06/12 09:46:32;;;;;;;1.90;1.70;;;;;;;;;;4881995;29;20116;-44
2021/06/12 09:48:58;;;;;;;1.52;1.40;;;;;;;;;;4882043;29;20025;-44
2021/06/12 09:51:23;;;;;;;3.08;1.25;;;;;;;;;;4882084;29;20496;-45
2021/06/12 09:53:49;;;;;;;1.50;1.13;;;;;;;;;;4881661;29;20029;-44
2021/06/12 09:56:14;;;;;;;2.17;1.45;;;;;;;;;;4881743;29;20049;-44
2021/06/12 09:58:40;;;;;;;2.10;1.50;;;;;;;;;;4881663;29;20021;-45
2021/06/12 10:01:09;;;;;;;1.40;1.30;;;;;;;;;;4881486;29;20045;-44
2021/06/12 10:03:34;;;;;;;1.92;1.20;;;;;;;;;;4881611;29;20025;-46
2021/06/12 10:06:09;;;;;;;1.83;1.30;;;;;;;;;;4881485;29;20041;-45
2021/06/12 10:08:34;;;;;;;1.35;1.15;;;;;;;;;;4881469;29;20477;-45
2021/06/12 10:11:01;;;;;;;5.70;1.05;;;;;;;;;;4881443;29;20025;-45
2021/06/12 10:13:27;;;;;;;1.15;0.93;;;;;;;;;;4881684;29;20052;-45
2021/06/12 10:15:53;;;;;;;1.75;1.50;;;;;;;;;;4881567;29;20037;-45
2021/06/12 10:18:20;;;;;;;1.33;1.23;;;;;;;;;;4881698;29;20093;-46
2021/06/12 10:20:45;;;;;;;1.30;1.17;;;;;;;;;;4881198;29;20025;-45
2021/06/12 10:23:11;;;;;;;1.15;1.10;;;;;;;;;;4881268;29;20088;-45
2021/06/12 10:25:36;;;;;;;1.45;1.13;;;;;;;;;;4881226;29;20025;-46
2021/06/12 10:28:02;;;;;;;4.43;1.20;;;;;;;;;;4881110;29;20117;-44
2021/06/12 10:30:29;;;;;;;2.38;1.45;;;;;;;;;;4881162;29;20021;-45
2021/06/12 10:32:55;;;;;;;1.33;1.23;;;;;;;;;;4881094;29;20044;-45
2021/06/12 10:35:22;;;;;;;1.52;1.20;;;;;;;;;;4880997;29;20468;-45
2021/06/12 10:38:00;;;;;;;2.08;1.40;;;;;;;;;;4880829;29;20053;-45
2021/06/12 10:40:42;;;;;;;2.97;1.80;;;;;;;;;;4881052;29;20048;-45
2021/06/12 10:43:13;;;;;;;2.43;1.37;;;;;;;;;;4880863;29;20041;-45
2021/06/12 10:45:39;;;;;;;3.65;1.83;;;;;;;;;;4881002;29;20380;-45
2021/06/12 10:48:05;;;;;;;1.55;1.27;;;;;;;;;;4880769;29;20032;-44
2021/06/12 10:50:34;;;;;;;1.90;1.42;;;;;;;;;;4880514;29;20056;-45
2021/06/12 10:53:16;;;;;;;2.58;1.83;;;;;;;;;;4880956;29;20100;-46
2021/06/12 10:55:43;;;;;;;2.95;1.90;;;;;;;;;;4880728;29;20048;-45
2021/06/12 10:58:27;;;;;;;1.77;1.27;;;;;;;;;;4880617;29;20129;-46
2021/06/12 11:01:08;;;;;;;1.67;1.40;;;;;;;;;;4880529;29;20036;-46
2021/06/12 11:06:40;;;;;;;1.52;1.30;;;;;;;;;;4880592;29;20029;-45
2021/06/12 11:09:26;;;;;;;1.70;1.50;;;;;;;;;;4880484;29;20041;-45
2021/06/12 11:11:52;;;;;;;2.00;1.67;;;;;;;;;;4880103;29;20381;-45
2021/06/12 11:14:24;;;;;;;1.45;1.25;;;;;;;;;;4880637;29;20033;-45
2021/06/12 11:17:07;;;;;;;4.07;1.80;;;;;;;;;;4880472;29;20444;-45
2021/06/12 11:19:39;;;;;;;2.22;1.80;;;;;;;;;;4880299;29;20029;-45
2021/06/12 11:22:23;;;;;;;2.15;1.85;;;;;;;;;;4880534;29;20045;-45
2021/06/12 11:24:50;;;;;;;3.33;1.95;;;;;;;;;;4880258;29;20043;-45
2021/06/12 11:27:22;;;;;;;1.60;1.40;;;;;;;;;;4880468;29;20043;-45
2021/06/12 11:30:06;;;;;;;3.28;1.38;;;;;;;;;;4878736;29;20052;-45
2021/06/12 11:32:32;;;;;;;1.88;1.65;;;;;;;;;;4880100;29;20434;-45
2021/06/12 11:34:57;;;;;;;1.55;1.20;;;;;;;;;;4878614;29;20097;-46
2021/06/12 11:37:24;;;;;;;1.95;1.45;;;;;;;;;;4879837;29;20056;-45
2021/06/12 11:39:51;;;;;;;2.15;1.65;;;;;;;;;;4878524;29;20029;-45
2021/06/12 11:42:17;;;;;;;2.85;1.42;;;;;;;;;;4879624;29;20429;-46
2021/06/12 11:44:42;;;;;;;2.00;1.48;;;;;;;;;;4879869;29;20028;-46
2021/06/12 11:47:08;;;;;;;2.03;1.83;;;;;;;;;;4879671;29;20029;-45
2021/06/12 11:49:33;;;;;;;3.25;1.50;;;;;;;;;;4879780;29;20381;-45
2021/06/12 11:51:59;;;;;;;1.67;1.20;;;;;;;;;;4879672;29;20037;-45
2021/06/12 11:54:31;;;;;;;1.92;1.70;;;;;;;;;;4879788;29;20029;-45
2021/06/12 11:56:58;;;;;;;2.17;1.47;;;;;;;;;;4879654;29;20049;-46
2021/06/12 11:59:25;;;;;;;2.00;1.80;;;;;;;;;;4879284;29;20025;-46
2021/06/12 12:01:58;;;;;;;3.97;1.70;;;;;;;;;;4878905;29;20127;-45
2021/06/12 12:04:24;;;;;;;;;;;;;;;;;;4880212;29;20036;-45
2021/06/12 12:06:50;;;;;;;3.20;2.03;;;;;;;;;;4879351;29;20390;-45
2021/06/12 12:09:20;;;;;;;2.63;1.48;;;;;;;;;;4879452;29;20044;-46
2021/06/12 12:11:48;;;;;;;2.70;1.98;;;;;;;;;;4879341;29;20055;-45
2021/06/12 12:14:13;;;;;;;2.33;1.58;;;;;;;;;;4879342;29;20025;-45
2021/06/12 12:16:39;;;;;;;3.17;1.95;;;;;;;;;;4879552;29;20039;-46
2021/06/12 12:19:04;;;;;;;2.08;1.40;;;;;;;;;;4879275;29;20413;-45
2021/06/12 12:21:37;;;;;;;2.25;1.73;;;;;;;;;;4879146;29;20028;-45
2021/06/12 12:24:06;;;;;;;1.77;1.45;;;;;;;;;;4879710;29;20120;-45
2021/06/12 12:26:32;;;;;;;1.58;1.27;;;;;;;;;;4879209;29;20036;-45
2021/06/12 12:29:12;;;;;;;12.18;2.30;;;;;;;;;;4879003;29;20036;-46
2021/06/12 12:31:42;;;;;;;2.30;1.80;;;;;;;;;;4879149;29;20472;-45
2021/06/12 12:34:07;;;;;;;2.20;1.75;;;;;;;;;;4878970;29;20120;-45
2021/06/12 12:36:41;;;;;;;2.40;1.77;;;;;;;;;;4878955;29;20457;-45
2021/06/12 12:39:06;;;;;;;3.05;1.77;;;;;;;;;;4878837;29;20056;-45
2021/06/12 12:41:32;;;;;;;3.47;2.53;;;;;;;;;;4879029;29;20036;-44
2021/06/12 12:44:23;;;;;;;2.63;1.90;;;;;;;;;;4878828;29;20036;-45
2021/06/12 12:46:50;;;;;;;2.47;2.00;;;;;;;;;;4879461;29;20048;-45
2021/06/12 12:49:17;;;;;;;2.97;1.67;;;;;;;;;;4879090;29;20030;-45
2021/06/12 12:51:56;;;;;;;2.20;1.60;;;;;;;;;;4878850;29;20033;-45
2021/06/12 12:54:23;;;;;;;2.15;1.88;;;;;;;;;;4877479;29;20454;-45
2021/06/12 12:56:52;;;;;;;2.15;1.80;;;;;;;;;;4877557;29;20025;-46
2021/06/12 12:59:27;;;;;;;3.05;2.45;;;;;;;;;;4878755;29;20029;-45
2021/06/12 13:01:53;;;;;;;2.17;1.70;;;;;;;;;;4878657;29;20105;-44
2021/06/12 13:04:33;;;;;;;2.75;1.88;;;;;;;;;;4878983;29;20021;-46
2021/06/12 13:07:03;;;;;;;2.13;1.63;;;;;;;;;;4878637;29;20029;-45
2021/06/12 13:09:28;;;;;;;2.20;2.00;;;;;;;;;;4878662;29;20056;-45
2021/06/12 13:11:55;;;;;;;4.10;1.60;;;;;;;;;;4878549;29;20067;-46
2021/06/12 13:14:27;;;;;;;2.78;2.05;;;;;;;;;;4882781;29;20432;-46
2021/06/12 13:16:56;;;;;;;2.88;2.17;;;;;;;;;;4882709;29;20401;-46
2021/06/12 13:19:28;;;;;;;5.90;3.35;;;;;;;;;;4882412;29;20025;-45
2021/06/12 13:21:53;;;;;;;4.68;2.53;;;;;;;;;;4882347;29;20515;-45
2021/06/12 13:24:19;;;;;;;3.15;2.33;;;;;;;;;;4882607;29;20047;-46
2021/06/12 13:26:44;;;;;;;3.78;3.08;;;;;;;;;;4882246;29;20500;-45
2021/06/12 13:29:16;;;;;;;4.07;1.92;;;;;;;;;;4882158;29;20103;-44
2021/06/12 13:31:42;;;;;;;3.38;2.78;;;;;;;;;;4882536;29;20040;-45
2021/06/12 13:34:22;;;;;;;3.55;2.45;;;;;;;;;;4881942;29;20045;-44
2021/06/12 13:36:52;;;;;;;3.60;2.40;;;;;;;;;;4882152;29;20354;-46
2021/06/12 13:39:27;;;;;;;7.28;2.58;;;;;;;;;;4882300;29;20044;-45
2021/06/12 13:42:04;;;;;;;3.05;2.10;;;;;;;;;;4880794;29;20112;-45
2021/06/12 13:44:29;;;;;;;4.93;2.78;;;;;;;;;;4882092;29;20029;-45
2021/06/12 13:46:54;;;;;;;9.20;2.80;;;;;;;;;;4882114;29;20029;-45
2021/06/12 13:49:20;;;;;;;5.75;2.70;;;;;;;;;;4880596;29;20033;-45
2021/06/12 13:51:45;;;;;;;3.88;2.78;;;;;;;;;;4881920;29;20376;-44
2021/06/12 13:54:11;;;;;;;3.88;2.67;;;;;;;;;;4881902;29;20041;-45
2021/06/12 13:56:41;;;;;;;3.17;2.75;;;;;;;;;;4881834;29;20483;-45
2021/06/12 13:59:06;;;;;;;4.65;3.00;;;;;;;;;;4881916;29;20053;-45
2021/06/12 14:01:32;;;;;;;4.07;3.17;;;;;;;;;;4880358;29;20071;-45
2021/06/12 14:03:57;;;;;;;2.13;1.85;;;;;;;;;;4881632;29;20040;-46
2021/06/12 14:06:23;;;;;;;3.47;2.85;;;;;;;;;;4881597;29;20022;-45
2021/06/12 14:08:48;;;;;;;2.53;2.15;;;;;;;;;;4881771;29;20064;-45
2021/06/12 14:11:14;;;;;;;5.32;3.55;;;;;;;;;;4881459;29;20035;-45
2021/06/12 14:13:39;;;;;;;2.97;2.15;;;;;;;;;;4881379;29;20040;-45
2021/06/12 14:16:05;;;;;;;7.00;3.70;;;;;;;;;;4881629;29;20375;-46
2021/06/12 14:18:32;;;;;;;4.90;2.70;;;;;;;;;;4881446;29;20030;-46
2021/06/12 14:20:58;;;;;;;2.72;2.30;;;;;;;;;;4881546;29;20039;-45
2021/06/12 14:23:25;;;;;;;5.95;3.75;;;;;;;;;;4879931;29;20383;-46
2021/06/12 14:25:51;;;;;;;3.63;2.30;;;;;;;;;;4880762;29;20101;-45
2021/06/12 14:28:18;;;;;;;4.05;2.72;;;;;;;;;;4881276;29;20480;-45
2021/06/12 14:30:43;;;;;;;4.80;2.78;;;;;;;;;;4881146;29;20028;-45
2021/06/12 14:33:09;;;;;;;5.35;3.35;;;;;;;;;;4879830;29;20408;-45
2021/06/12 14:35:35;;;;;;;4.10;2.30;;;;;;;;;;4881111;29;20033;-45
2021/06/12 14:38:00;;;;;;;2.10;1.90;;;;;;;;;;4880752;29;20081;-45
2021/06/12 14:40:26;;;;;;;7.07;4.05;;;;;;;;;;4881081;29;20032;-46
2021/06/12 14:42:53;;;;;;;8.48;4.80;;;;;;;;;;4880942;29;20033;-45
2021/06/12 14:45:18;;;;;;;5.07;3.90;;;;;;;;;;4880943;29;20032;-45